SHMÚ vydal hydrologické výstrahy na   Povodeň Display warnings

METAR

Aeronautical MET Report METAR

METAR description (Slovak)

16.12.2017 - 20:00 UTC

METAR LZIB 162000Z 29003KT CAVOK 01/M00 Q1013=
METAR LZKZ 162000Z 33003KT CAVOK M01/M03 Q1011=
METAR LZPP 162000Z VRB01KT 8000 NSC M03/M04 Q1012=
METAR LZSL 162000Z 00000KT CAVOK M05/M06 Q1011=
METAR LZTT 162000Z 27006KT 9999 FEW023 M09/M10 Q1009=
METAR LZZI 162000Z 24002KT 2800 BR OVC046 00/M00 Q1011=

16.12.2017 - 19:30 UTC

METAR LZIB 161930Z 29005KT CAVOK 00/M01 Q1012=
METAR LZKZ 161930Z 35004KT CAVOK M01/M02 Q1011=
METAR LZPP 161930Z 13002KT CAVOK M02/M03 Q1012=
METAR LZSL 161930Z 00000KT CAVOK M05/M06 Q1011=
METAR LZTT 161930Z VRB02KT 9999 FEW023 M09/M11 Q1009=
METAR LZZI 161930Z VRB01KT 3300 BR OVC045 00/M00 Q1011=

16.12.2017 - 20:00 UTC

METAR LZMC 162000Z 15002KT 7000 NSC M02/M04 Q1013=
METAR LZPW 162000Z 00000KT CAVOK M04/M06 Q1011=

 

 

skok na menu ↑


skok na začiatok stránky ↑